Portada
METAR-TAF:

METAR-TAF

Aeropuertos :

Aeropuerto Internacional de Seychelles

Victoria, Mahé, Seychelles

latitud: 04-40S, longitud: 055-31E, altitud: 3 m

Observación

El informe se hizo hace 29 minutos, a las 09:00 UTC
Viento 7 kt del oeste, variando entre sureste y noroeste
Temperatura 31°C
Humedad 59%
Presión 1011 hPa
Visibilidad 10 km o más
Escasas nubes a una altura de 3000 ft

METAR: FSIA 190900Z 27007KT 140V310 9999 FEW030 31/22 Q1011 NOSIG

Hora: 13:29 (09:29 UTC)

Pronóstico

El informe se hizo hace 4 horas y 29 minutos, a las 05:00 UTC
Pronóstico válido del 19 a las 06 UTC al 20 a las 06 UTC
Viento 7 kt del suroeste
Visibilidad 10 km o más
Nubes dispersas a una altura de 2400 ft

TAF: FSIA 190500Z 1906/2006 22007KT 9999 SCT024

Observaciones y pronósticos meteorológicos de más de 4000 aeropuertos (mensajes METAR y TAF).

Los puntos amarillos y rojos representan las estaciones disponibles.

Ponga el ratón en el punto deseado para ver el nombre de la estación.

Haga clic para ver las observaciones y los pronósticos meteorológicos.

Para cambiar el mapa : haga clic en los botones verdes con una cruz de color negro para hacer un zoom, en el botón verde con un guión para alejar o en las flechas verdes para mapas adyacentes.


METAR-TAF: